Accueil
METAR-TAF:

METAR-TAF

Aéroports :

Aéroport international Roman-Tmetuchl

Koror, Babeldaob, Palaos

latitude: 07-22N, longitude: 134-32E, altitude: 54 m

Observation

Le bulletin a été fait il y a 1 heure et 13 minutes, à 12:50 UTC
Vent 4 kt de nord-est
Température 27°C
Humidité 84%
Pression 1010 hPa
Visibilité: 20.9 km
Nuages épars à une hauteur de 1600 ft
Nuages fragmentés à une hauteur de 11000 ft
Nuages fragmentés à une hauteur de 29000 ft

METAR: PTRO 121250Z 05004KT 13SM SCT016 BKN110 BKN290 27/24 A2983

Heure: 23:03 (14:03 UTC)

Prévision

Le bulletin a été fait il y a 2 heures et 43 minutes, à 11:20 UTC
Prévision valable du 12 à 12 UTC au 13 à 12 UTC
Vent 10 kt de est/nord-est
Visibilité: 10 km
Quelques nuages à une hauteur de 1000 ft
Nuages épars à une hauteur de 1600 ft
Nuages épars à une hauteur de 13000 ft

TAF: PTRO 121120Z 1212/1312 06010KT P6SM FEW010 SCT016 SCT130

Observations et prévisions météorologiques de plus de 4000 aéroports (messages METAR et TAF).

Les stations disponibles sont représentées par des disques jaunes et rouges sur la carte.

Passer la souris dessus pour voir le nom de la station.

Cliquer dessus pour voir les observations et prévisions météorologiques.

Pour changer de carte: cliquez sur les boutons verts avec une croix noire pour zoomer, sur le bouton vert avec un tiret pour effectuer un zoom arrière, ou sur les flèches vertes pour les cartes adjacentes.


METAR-TAF: